createdAt,value
2019-04-27T00:02:50.283Z,10.00
2019-04-27T00:05:39.774Z,9.90
2019-04-27T00:08:16.059Z,9.80
2019-04-27T00:10:55.524Z,9.80
2019-04-27T00:13:23.005Z,9.70
2019-04-27T00:15:58.921Z,9.70
2019-04-27T00:18:40.873Z,9.70
2019-04-27T00:21:20.812Z,9.60
2019-04-27T00:23:48.161Z,9.60
2019-04-27T00:26:15.490Z,9.60
2019-04-27T00:28:43.427Z,9.60
2019-04-27T00:31:11.028Z,9.50
2019-04-27T00:33:38.464Z,9.40
2019-04-27T00:36:13.664Z,9.40
2019-04-27T00:38:50.508Z,9.40
2019-04-27T00:41:19.212Z,9.40
2019-04-27T00:43:46.680Z,9.40
2019-04-27T00:46:14.061Z,9.30
2019-04-27T00:48:43.160Z,9.20
2019-04-27T00:51:10.809Z,9.20
2019-04-27T00:53:38.193Z,9.20
2019-04-27T00:56:25.271Z,9.20
2019-04-27T00:59:16.747Z,9.20
2019-04-27T01:02:04.040Z,9.20
2019-04-27T01:04:31.663Z,9.20
2019-04-27T01:06:59.002Z,9.20
2019-04-27T01:09:26.793Z,9.20
2019-04-27T01:11:54.059Z,9.20
2019-04-27T01:14:22.957Z,9.10
2019-04-27T01:16:51.520Z,9.10
2019-04-27T01:19:19.139Z,9.10
2019-04-27T01:21:46.562Z,9.00
2019-04-27T01:24:14.124Z,9.00
2019-04-27T01:27:09.790Z,9.00
2019-04-27T01:29:37.124Z,9.00
2019-04-27T01:32:05.697Z,8.90
2019-04-27T01:34:33.024Z,8.90
2019-04-27T01:37:00.369Z,8.90
2019-04-27T01:39:28.915Z,8.80
2019-04-27T01:41:56.450Z,8.80
2019-04-27T01:44:23.718Z,8.80
2019-04-27T01:46:51.035Z,8.80
2019-04-27T01:49:19.380Z,8.80
2019-04-27T01:51:46.715Z,8.80
2019-04-27T01:54:15.878Z,8.80
2019-04-27T01:56:43.183Z,8.80
2019-04-27T01:59:10.537Z,8.80
2019-04-27T02:01:50.697Z,8.80
2019-04-27T02:04:26.981Z,8.80
2019-04-27T02:06:56.084Z,8.80
2019-04-27T02:09:23.429Z,8.80
2019-04-27T02:11:50.863Z,8.80
2019-04-27T02:14:19.596Z,8.80
2019-04-27T02:16:47.108Z,8.80
2019-04-27T02:19:14.595Z,8.80
2019-04-27T02:21:41.916Z,8.90
2019-04-27T02:24:11.188Z,8.90
2019-04-27T02:26:39.869Z,9.00
2019-04-27T02:29:25.106Z,9.00
2019-04-27T02:32:21.258Z,9.00
2019-04-27T02:35:00.246Z,9.10
2019-04-27T02:37:30.420Z,9.20
2019-04-27T02:39:57.111Z,9.10
2019-04-27T02:42:26.294Z,9.20
2019-04-27T02:44:53.881Z,9.20
2019-04-27T02:47:21.235Z,9.20
2019-04-27T02:49:50.744Z,9.20
2019-04-27T02:52:23.521Z,9.30
2019-04-27T02:54:50.959Z,9.30
2019-04-27T02:57:19.834Z,9.30
2019-04-27T02:59:50.010Z,9.30
2019-04-27T03:02:22.340Z,9.30
2019-04-27T03:04:50.101Z,9.30
2019-04-27T03:07:19.863Z,9.30
2019-04-27T03:09:46.765Z,9.30
2019-04-27T03:12:15.893Z,9.30
2019-04-27T03:15:11.390Z,9.30
2019-04-27T03:17:45.591Z,9.30
2019-04-27T03:20:44.301Z,9.30
2019-04-27T03:23:12.106Z,9.30
2019-04-27T03:25:47.086Z,9.20
2019-04-27T03:28:15.466Z,9.20
2019-04-27T03:30:43.559Z,9.10
2019-04-27T03:33:12.068Z,9.10
2019-04-27T03:35:42.926Z,9.10
2019-04-27T03:38:12.097Z,9.10
2019-04-27T03:40:40.352Z,9.10
2019-04-27T03:43:15.567Z,9.10
2019-04-27T03:45:42.913Z,9.10
2019-04-27T03:48:10.485Z,9.10
2019-04-27T03:50:43.996Z,9.10
2019-04-27T03:53:39.431Z,9.10
2019-04-27T03:56:25.480Z,9.10
2019-04-27T03:59:00.189Z,9.10
2019-04-27T04:01:30.079Z,9.00
2019-04-27T04:03:56.870Z,9.00
2019-04-27T04:06:24.172Z,9.00
2019-04-27T04:08:55.004Z,9.10
2019-04-27T04:11:26.700Z,9.10
2019-04-27T04:14:00.159Z,9.10
2019-04-27T04:16:41.737Z,9.10
2019-04-27T04:19:09.977Z,9.10
2019-04-27T04:21:39.692Z,9.10
2019-04-27T04:24:08.926Z,9.10
2019-04-27T04:26:35.921Z,9.10
2019-04-27T04:29:03.390Z,9.10
2019-04-27T04:31:33.181Z,9.10
2019-04-27T04:34:00.299Z,9.10
2019-04-27T04:36:29.780Z,9.20
2019-04-27T04:38:56.729Z,9.10
2019-04-27T04:41:50.988Z,9.10
2019-04-27T04:44:40.047Z,9.10
2019-04-27T04:47:13.542Z,9.10
2019-04-27T04:49:40.894Z,9.20
2019-04-27T04:52:09.610Z,9.20
2019-04-27T04:54:37.073Z,9.30
2019-04-27T04:57:04.426Z,9.40
2019-04-27T04:59:31.779Z,9.40
2019-04-27T05:02:00.243Z,9.50
2019-04-27T05:04:29.158Z,9.50
2019-04-27T05:06:56.600Z,9.60
2019-04-27T05:09:23.881Z,9.60
2019-04-27T05:11:51.250Z,9.70
2019-04-27T05:14:19.977Z,9.70
2019-04-27T05:16:48.930Z,9.80
2019-04-27T05:19:16.390Z,9.90
2019-04-27T05:21:43.769Z,9.90
2019-04-27T05:24:11.165Z,10.00
2019-04-27T05:26:39.767Z,10.00
2019-04-27T05:29:08.956Z,10.10
2019-04-27T05:31:36.492Z,10.10
2019-04-27T05:34:06.783Z,10.20
2019-04-27T05:36:33.884Z,10.30
2019-04-27T05:39:01.276Z,10.30
2019-04-27T05:41:31.149Z,10.30
2019-04-27T05:44:18.430Z,10.30
2019-04-27T05:47:09.950Z,10.30
2019-04-27T05:49:41.177Z,10.30
2019-04-27T05:52:26.343Z,10.30
2019-04-27T05:54:53.615Z,10.20
2019-04-27T05:57:21.007Z,10.20
2019-04-27T05:59:49.831Z,10.10
2019-04-27T06:02:17.281Z,10.10
2019-04-27T06:04:44.603Z,10.10
2019-04-27T06:07:11.961Z,10.10
2019-04-27T06:09:39.327Z,10.00
2019-04-27T06:12:06.670Z,10.00
2019-04-27T06:14:34.092Z,10.00
2019-04-27T06:17:01.439Z,10.00
2019-04-27T06:19:29.214Z,10.00
2019-04-27T06:21:56.676Z,10.00
2019-04-27T06:24:23.916Z,10.00
2019-04-27T06:26:51.307Z,10.00
2019-04-27T06:29:19.517Z,10.00
2019-04-27T06:31:47.175Z,10.00
2019-04-27T06:34:14.630Z,10.00
2019-04-27T06:36:41.968Z,10.00
2019-04-27T06:39:09.781Z,10.00
2019-04-27T06:41:37.366Z,10.10
2019-04-27T06:44:04.612Z,10.10
2019-04-27T06:46:32.158Z,10.10
2019-04-27T06:48:59.608Z,10.10
2019-04-27T06:51:28.521Z,10.10
2019-04-27T06:53:56.114Z,10.10
2019-04-27T06:56:23.480Z,10.20
2019-04-27T06:58:50.812Z,10.20
2019-04-27T07:01:19.045Z,10.30
2019-04-27T07:03:46.608Z,10.50
2019-04-27T07:06:13.971Z,10.60
2019-04-27T07:08:41.309Z,10.70
2019-04-27T07:11:11.317Z,10.70
2019-04-27T07:13:39.062Z,10.80
2019-04-27T07:16:06.532Z,10.70
2019-04-27T07:18:33.871Z,10.80
2019-04-27T07:21:01.237Z,10.80
2019-04-27T07:23:29.247Z,10.70
2019-04-27T07:25:56.726Z,10.70
2019-04-27T07:28:23.953Z,10.60
2019-04-27T07:30:51.301Z,10.60
2019-04-27T07:33:18.725Z,10.60
2019-04-27T07:35:46.772Z,10.60
2019-04-27T07:38:14.069Z,10.60
2019-04-27T07:40:42.116Z,10.60
2019-04-27T07:43:21.116Z,10.70
2019-04-27T07:45:49.445Z,10.70
2019-04-27T07:48:16.821Z,10.70
2019-04-27T07:50:44.053Z,10.80
2019-04-27T07:53:11.277Z,10.80
2019-04-27T07:55:39.469Z,10.80
2019-04-27T07:58:08.788Z,10.90
2019-04-27T08:00:36.059Z,10.90
2019-04-27T08:03:03.306Z,10.90
2019-04-27T08:05:30.620Z,10.90
2019-04-27T08:07:57.944Z,11.00
2019-04-27T08:10:25.168Z,11.00
2019-04-27T08:12:52.416Z,11.00
2019-04-27T08:15:19.616Z,11.00
2019-04-27T08:17:46.938Z,11.00
2019-04-27T08:20:14.390Z,11.00
2019-04-27T08:22:41.762Z,11.00
2019-04-27T08:25:09.615Z,10.90
2019-04-27T08:27:52.773Z,11.00
2019-04-27T08:30:48.926Z,11.00
2019-04-27T08:33:16.381Z,11.00
2019-04-27T08:35:43.572Z,11.10
2019-04-27T08:38:10.861Z,11.20
2019-04-27T08:40:39.361Z,11.20
2019-04-27T08:43:09.080Z,11.30
2019-04-27T08:45:36.633Z,11.30
2019-04-27T08:48:03.924Z,11.20
2019-04-27T08:50:31.237Z,11.20
2019-04-27T08:52:58.576Z,11.20
2019-04-27T08:55:25.798Z,11.10
2019-04-27T08:57:53.116Z,11.10
2019-04-27T09:00:21.181Z,11.10
2019-04-27T09:02:50.346Z,11.20
2019-04-27T09:05:24.465Z,11.20
2019-04-27T09:08:11.704Z,11.30
2019-04-27T09:10:44.458Z,11.30
2019-04-27T09:13:19.475Z,11.40
2019-04-27T09:15:57.116Z,11.50
2019-04-27T09:18:26.455Z,11.60
2019-04-27T09:20:56.284Z,11.60
2019-04-27T09:23:24.552Z,11.60
2019-04-27T09:25:51.858Z,11.60
2019-04-27T09:28:20.125Z,11.60
2019-04-27T09:30:49.817Z,11.60
2019-04-27T09:33:17.176Z,11.50
2019-04-27T09:35:47.274Z,11.50
2019-04-27T09:38:14.604Z,11.60
2019-04-27T09:40:41.922Z,11.70
2019-04-27T09:43:09.142Z,11.70
2019-04-27T09:45:37.153Z,11.70
2019-04-27T09:48:06.436Z,11.40
2019-04-27T09:50:35.950Z,11.00
2019-04-27T09:53:03.056Z,10.60
2019-04-27T09:55:30.369Z,10.50
2019-04-27T09:57:57.709Z,10.30
2019-04-27T10:00:25.117Z,10.30
2019-04-27T10:02:52.348Z,10.10
2019-04-27T10:05:19.847Z,10.10
2019-04-27T10:07:47.644Z,10.00
2019-04-27T10:10:15.742Z,10.00
2019-04-27T10:12:43.098Z,10.10
2019-04-27T10:15:11.146Z,10.20
2019-04-27T10:17:38.385Z,10.20
2019-04-27T10:20:06.295Z,10.30
2019-04-27T10:22:42.642Z,10.40
2019-04-27T10:25:03.195Z,10.50
2019-04-27T10:27:30.558Z,10.70
2019-04-27T10:29:58.516Z,10.70
2019-04-27T10:32:26.161Z,10.70
2019-04-27T10:34:53.544Z,10.80
2019-04-27T10:37:20.858Z,10.90
2019-04-27T10:39:48.269Z,11.00
2019-04-27T10:42:15.589Z,11.10
2019-04-27T10:44:42.910Z,11.30
2019-04-27T10:47:10.234Z,11.40
2019-04-27T10:49:37.598Z,11.50
2019-04-27T10:52:05.923Z,11.50
2019-04-27T10:54:33.272Z,11.60
2019-04-27T10:57:00.538Z,11.60
2019-04-27T10:59:27.777Z,11.70
2019-04-27T11:01:56.006Z,11.70
2019-04-27T11:04:42.932Z,11.60
2019-04-27T11:07:12.858Z,11.60
2019-04-27T11:09:40.952Z,11.40
2019-04-27T11:12:08.272Z,11.30
2019-04-27T11:14:35.521Z,11.30
2019-04-27T11:17:06.298Z,11.20
2019-04-27T11:19:35.645Z,11.20
2019-04-27T11:22:03.133Z,11.10
2019-04-27T11:24:30.465Z,11.00
2019-04-27T11:26:57.793Z,10.90
2019-04-27T11:29:25.690Z,10.90
2019-04-27T11:31:55.622Z,10.80
2019-04-27T11:34:42.624Z,10.80
2019-04-27T11:37:09.964Z,10.80
2019-04-27T11:39:37.299Z,10.60
2019-04-27T11:42:04.525Z,10.60
2019-04-27T11:44:31.877Z,10.80
2019-04-27T11:46:59.211Z,11.00
2019-04-27T11:49:26.400Z,11.20
2019-04-27T11:51:53.728Z,11.40
2019-04-27T11:54:21.038Z,11.60
2019-04-27T11:56:48.458Z,11.70
2019-04-27T11:59:15.975Z,11.80
2019-04-27T12:01:43.292Z,11.90
2019-04-27T12:04:10.625Z,12.10
2019-04-27T12:06:37.944Z,12.10
2019-04-27T12:09:05.866Z,12.30
2019-04-27T12:11:33.218Z,12.40
2019-04-27T12:14:00.592Z,12.30
2019-04-27T12:16:27.826Z,12.20
2019-04-27T12:18:56.354Z,12.20
2019-04-27T12:21:23.884Z,12.10
2019-04-27T12:23:51.226Z,12.20
2019-04-27T12:26:33.205Z,12.10
2019-04-27T12:29:02.232Z,12.20
2019-04-27T12:31:35.893Z,12.20
2019-04-27T12:34:03.493Z,12.20
2019-04-27T12:36:30.846Z,12.30
2019-04-27T12:38:58.184Z,12.30
2019-04-27T12:41:25.503Z,12.20
2019-04-27T12:43:52.756Z,12.10
2019-04-27T12:46:20.253Z,12.10
2019-04-27T12:48:47.589Z,12.20
2019-04-27T12:51:14.916Z,12.30
2019-04-27T12:53:58.072Z,12.50
2019-04-27T12:56:55.560Z,12.70
2019-04-27T12:59:41.041Z,12.90
2019-04-27T13:02:08.740Z,12.90
2019-04-27T13:04:36.459Z,13.10
2019-04-27T13:07:05.915Z,13.10
2019-04-27T13:09:33.383Z,13.40
2019-04-27T13:12:00.697Z,13.80
2019-04-27T13:14:27.945Z,14.10
2019-04-27T13:16:56.078Z,14.40
2019-04-27T13:19:23.495Z,14.40
2019-04-27T13:21:50.802Z,14.30
2019-04-27T13:24:18.122Z,14.30
2019-04-27T13:26:45.704Z,14.30
2019-04-27T13:29:13.092Z,14.40
2019-04-27T13:31:40.482Z,14.40
2019-04-27T13:34:07.857Z,14.60
2019-04-27T13:36:36.682Z,14.90
2019-04-27T13:39:06.353Z,15.20
2019-04-27T13:41:35.627Z,15.40
2019-04-27T13:44:03.121Z,15.60
2019-04-27T13:46:48.370Z,15.40
2019-04-27T13:49:33.783Z,15.60
2019-04-27T13:52:08.426Z,16.00
2019-04-27T13:54:35.803Z,16.30
2019-04-27T13:57:03.134Z,16.40
2019-04-27T13:59:31.815Z,16.60
2019-04-27T14:01:59.178Z,16.60
2019-04-27T14:04:26.538Z,16.40
2019-04-27T14:06:53.840Z,16.20
2019-04-27T14:09:21.166Z,15.90
2019-04-27T14:11:48.384Z,15.60
2019-04-27T14:14:15.615Z,14.90
2019-04-27T14:16:43.906Z,14.40
2019-04-27T14:19:11.261Z,13.70
2019-04-27T14:21:38.628Z,13.00
2019-04-27T14:24:06.392Z,12.30
2019-04-27T14:26:33.646Z,11.70
2019-04-27T14:29:00.871Z,11.20
2019-04-27T14:31:29.162Z,10.90
2019-04-27T14:33:58.586Z,10.70
2019-04-27T14:36:25.764Z,10.60
2019-04-27T14:38:52.990Z,10.70
2019-04-27T14:41:20.195Z,10.90
2019-04-27T14:43:49.911Z,11.40
2019-04-27T14:46:18.645Z,12.00
2019-04-27T14:48:46.045Z,12.40
2019-04-27T14:51:13.363Z,12.60
2019-04-27T14:53:40.665Z,12.80
2019-04-27T14:56:08.848Z,13.10
2019-04-27T14:58:36.235Z,13.30
2019-04-27T15:01:03.595Z,13.50
2019-04-27T15:03:30.954Z,13.70
2019-04-27T15:05:58.342Z,13.80
2019-04-27T15:08:25.731Z,14.10
2019-04-27T15:10:53.970Z,14.10
2019-04-27T15:13:21.354Z,14.00
2019-04-27T15:15:48.684Z,13.80
2019-04-27T15:18:15.992Z,13.60
2019-04-27T15:20:46.188Z,13.50
2019-04-27T15:23:12.872Z,13.30
2019-04-27T15:25:45.566Z,13.00
2019-04-27T15:28:15.084Z,12.60
2019-04-27T15:30:55.610Z,12.30
2019-04-27T15:33:42.476Z,12.00
2019-04-27T15:36:14.645Z,11.90
2019-04-27T15:38:49.252Z,12.00
2019-04-27T15:41:30.442Z,12.40
2019-04-27T15:43:54.696Z,12.60
2019-04-27T15:46:22.127Z,12.70
2019-04-27T15:48:49.406Z,12.80
2019-04-27T15:51:20.033Z,12.90
2019-04-27T15:53:50.842Z,13.00
2019-04-27T15:56:15.732Z,13.00
2019-04-27T15:58:43.447Z,13.00
2019-04-27T16:01:11.973Z,12.90
2019-04-27T16:03:39.779Z,12.70
2019-04-27T16:06:08.123Z,12.50
2019-04-27T16:08:38.308Z,12.60
2019-04-27T16:11:11.770Z,12.60
2019-04-27T16:13:35.055Z,12.60
2019-04-27T16:16:02.444Z,12.60
2019-04-27T16:18:32.589Z,12.60
2019-04-27T16:21:02.923Z,12.60
2019-04-27T16:23:28.396Z,12.50
2019-04-27T16:25:58.247Z,12.40
2019-04-27T16:28:25.330Z,12.40
2019-04-27T16:30:54.028Z,12.30
2019-04-27T16:33:23.457Z,12.20
2019-04-27T16:35:53.000Z,12.10
2019-04-27T16:38:34.854Z,12.00
2019-04-27T16:41:03.502Z,11.90
2019-04-27T16:43:32.848Z,11.90
2019-04-27T16:46:04.388Z,12.00
2019-04-27T16:48:34.669Z,12.00
2019-04-27T16:51:00.754Z,12.10
2019-04-27T16:53:30.113Z,12.10
2019-04-27T16:56:14.191Z,12.10
2019-04-27T16:58:36.818Z,12.10
2019-04-27T17:01:10.103Z,12.10
2019-04-27T17:03:36.644Z,12.20
2019-04-27T17:06:07.529Z,12.30
2019-04-27T17:08:33.179Z,12.30
2019-04-27T17:11:08.193Z,12.30
2019-04-27T17:13:31.808Z,12.30
2019-04-27T17:16:18.970Z,12.30
2019-04-27T17:18:52.805Z,12.30
2019-04-27T17:21:23.190Z,12.30
2019-04-27T17:23:48.958Z,12.20
2019-04-27T17:26:21.830Z,12.20
2019-04-27T17:28:53.476Z,12.10
2019-04-27T17:31:23.332Z,12.10
2019-04-27T17:33:55.540Z,12.00
2019-04-27T17:36:22.962Z,11.90
2019-04-27T17:38:51.136Z,11.80
2019-04-27T17:41:18.576Z,11.80
2019-04-27T17:43:45.937Z,11.70
2019-04-27T17:46:13.555Z,11.60
2019-04-27T17:48:41.316Z,11.60
2019-04-27T17:51:08.959Z,11.60
2019-04-27T17:53:36.354Z,11.50
2019-04-27T17:56:06.022Z,11.50
2019-04-27T17:58:35.462Z,11.50
2019-04-27T18:01:04.111Z,11.50
2019-04-27T18:03:31.483Z,11.50
2019-04-27T18:05:58.858Z,11.50
2019-04-27T18:08:26.315Z,11.50
2019-04-27T18:10:57.917Z,11.50
2019-04-27T18:13:25.462Z,11.40
2019-04-27T18:15:54.092Z,11.40
2019-04-27T18:18:40.408Z,11.30
2019-04-27T18:21:08.078Z,11.20
2019-04-27T18:23:37.406Z,11.10
2019-04-27T18:26:17.458Z,11.10
2019-04-27T18:28:45.880Z,11.00
2019-04-27T18:31:16.208Z,10.90
2019-04-27T18:33:44.579Z,10.50
2019-04-27T18:36:14.349Z,10.00
2019-04-27T18:38:41.224Z,9.70
2019-04-27T18:41:11.772Z,9.50
2019-04-27T18:43:38.574Z,9.30
2019-04-27T18:46:08.932Z,9.20
2019-04-27T18:49:01.776Z,9.10
2019-04-27T18:51:52.645Z,9.00
2019-04-27T18:54:20.280Z,9.00
2019-04-27T18:56:51.697Z,9.00
2019-04-27T18:59:18.604Z,9.00
2019-04-27T19:01:46.088Z,9.00
2019-04-27T19:04:13.489Z,9.10
2019-04-27T19:06:41.105Z,9.10
2019-04-27T19:09:11.006Z,9.20
2019-04-27T19:11:38.497Z,9.20
2019-04-27T19:14:05.830Z,9.20
2019-04-27T19:16:33.221Z,9.20
2019-04-27T19:19:00.555Z,9.30
2019-04-27T19:21:28.852Z,9.30
2019-04-27T19:23:58.316Z,9.30
2019-04-27T19:26:45.194Z,9.20
2019-04-27T19:29:39.662Z,9.20
2019-04-27T19:32:08.024Z,9.20
2019-04-27T19:34:35.585Z,9.10
2019-04-27T19:37:03.265Z,9.10
2019-04-27T19:39:30.642Z,9.10
2019-04-27T19:42:03.465Z,9.00
2019-04-27T19:44:29.002Z,9.10
2019-04-27T19:46:56.652Z,9.00
2019-04-27T19:49:24.038Z,9.00
2019-04-27T19:51:51.609Z,9.00
2019-04-27T19:54:19.020Z,8.90
2019-04-27T19:56:46.522Z,8.90
2019-04-27T19:59:28.100Z,8.90
2019-04-27T20:01:58.406Z,8.90
2019-04-27T20:04:34.160Z,8.90
2019-04-27T20:07:02.303Z,8.80
2019-04-27T20:09:49.903Z,8.80
2019-04-27T20:12:17.913Z,8.80
2019-04-27T20:14:57.660Z,8.80
2019-04-27T20:17:31.185Z,8.80
2019-04-27T20:19:59.510Z,8.80
2019-04-27T20:22:27.163Z,8.80
2019-04-27T20:24:55.261Z,8.90
2019-04-27T20:27:22.734Z,8.90
2019-04-27T20:29:50.523Z,8.90
2019-04-27T20:32:18.285Z,8.90
2019-04-27T20:34:45.854Z,9.00
2019-04-27T20:37:13.473Z,9.00
2019-04-27T20:39:42.579Z,9.00
2019-04-27T20:42:12.334Z,9.10
2019-04-27T20:44:41.235Z,9.10
2019-04-27T20:47:09.545Z,9.10
2019-04-27T20:49:38.503Z,9.10
2019-04-27T20:52:15.758Z,9.10
2019-04-27T20:54:43.355Z,9.10
2019-04-27T20:57:11.493Z,9.10
2019-04-27T20:59:39.024Z,9.10
2019-04-27T21:02:24.250Z,9.20
2019-04-27T21:04:59.733Z,9.20
2019-04-27T21:07:42.851Z,9.20
2019-04-27T21:10:10.573Z,9.20
2019-04-27T21:12:38.017Z,9.20
2019-04-27T21:15:05.643Z,9.20
2019-04-27T21:17:33.522Z,9.20
2019-04-27T21:20:01.139Z,9.20
2019-04-27T21:22:28.981Z,9.20
2019-04-27T21:24:56.584Z,9.20
2019-04-27T21:27:24.174Z,9.20
2019-04-27T21:29:53.637Z,9.20
2019-04-27T21:32:21.003Z,9.20
2019-04-27T21:34:48.663Z,9.20
2019-04-27T21:37:16.016Z,9.20
2019-04-27T21:39:46.640Z,9.20
2019-04-27T21:42:14.177Z,9.20
2019-04-27T21:44:42.097Z,9.10
2019-04-27T21:47:11.127Z,9.10
2019-04-27T21:49:38.661Z,9.10
2019-04-27T21:52:14.660Z,9.10
2019-04-27T21:54:42.718Z,9.10
2019-04-27T21:57:11.149Z,9.10
2019-04-27T21:59:39.867Z,9.10
2019-04-27T22:02:08.514Z,9.00
2019-04-27T22:04:36.042Z,9.00
2019-04-27T22:07:03.477Z,9.00
2019-04-27T22:09:31.003Z,9.00
2019-04-27T22:11:58.399Z,9.00
2019-04-27T22:14:25.821Z,8.90
2019-04-27T22:16:53.263Z,8.90
2019-04-27T22:19:22.315Z,9.00
2019-04-27T22:21:49.823Z,8.90
2019-04-27T22:24:33.199Z,8.90
2019-04-27T22:27:00.714Z,8.90
2019-04-27T22:29:28.175Z,8.90
2019-04-27T22:31:55.617Z,8.90
2019-04-27T22:34:23.161Z,8.90
2019-04-27T22:36:50.673Z,8.90
2019-04-27T22:39:26.597Z,8.90
2019-04-27T22:42:12.143Z,8.80
2019-04-27T22:44:44.163Z,8.80
2019-04-27T22:47:13.008Z,8.80
2019-04-27T22:49:40.510Z,8.80
2019-04-27T22:52:07.891Z,8.80
2019-04-27T22:54:35.435Z,8.80
2019-04-27T22:57:08.887Z,8.70
2019-04-27T22:59:52.988Z,8.80
2019-04-27T23:02:29.367Z,8.70
2019-04-27T23:04:58.547Z,8.70
2019-04-27T23:07:26.033Z,8.70
2019-04-27T23:09:53.538Z,8.60
2019-04-27T23:12:21.186Z,8.60
2019-04-27T23:14:50.278Z,8.60
2019-04-27T23:17:37.956Z,8.60
2019-04-27T23:20:05.639Z,8.60
2019-04-27T23:22:33.073Z,8.60
2019-04-27T23:25:01.035Z,8.60
2019-04-27T23:27:28.606Z,8.60
2019-04-27T23:29:55.960Z,8.60
2019-04-27T23:32:31.637Z,8.50
2019-04-27T23:34:59.170Z,8.50
2019-04-27T23:37:26.527Z,8.50
2019-04-27T23:39:53.870Z,8.50
2019-04-27T23:42:21.724Z,8.50
2019-04-27T23:44:49.144Z,8.50
2019-04-27T23:47:16.464Z,8.50
2019-04-27T23:49:43.828Z,8.50
2019-04-27T23:52:15.890Z,8.50
2019-04-27T23:54:43.404Z,8.50
2019-04-27T23:57:11.790Z,8.50
2019-04-27T23:59:39.354Z,8.50
